Time;durP1;ratioP1;P1;durP2;ratioP2;P2;SDS_P1;SDS_P2;PMS_P1;PMS_P2;Temp;Humidity;BMP_temperature;BMP_pressure;BME280_temperature;BME280_humidity;BME280_pressure;Samples;Min_cycle;Max_cycle;Signal;HPM_P1;HPM_P2
2022/02/17 00:01:21;;;;;;;1.10;0.70;;;13.20;99.90;;;13.37;70.07;97660.06;4973667;28;20864;-71
2022/02/17 00:03:50;;;;;;;1.50;1.00;;;13.20;99.90;;;13.38;69.99;97660.88;4973011;28;20965;-69
2022/02/17 00:06:18;;;;;;;1.67;0.90;;;13.20;99.90;;;13.32;70.27;97653.91;4971213;28;20462;-70
2022/02/17 00:08:46;;;;;;;1.20;0.90;;;13.20;99.90;;;13.26;70.70;97644.25;4973333;28;20450;-70
2022/02/17 00:11:15;;;;;;;1.10;0.73;;;13.20;99.90;;;13.21;71.45;97637.00;4973773;28;20450;-72
2022/02/17 00:13:43;;;;;;;1.33;0.93;;;13.10;99.90;;;13.09;72.23;97633.91;4973523;28;20934;-71
2022/02/17 00:16:16;;;;;;;1.40;0.70;;;13.00;99.90;;;13.04;71.99;97623.13;4973233;28;20407;-71
2022/02/17 00:18:45;;;;;;;1.03;0.80;;;13.00;99.90;;;13.08;71.86;97624.16;4973381;28;20446;-70
2022/02/17 00:21:17;;;;;;;1.63;0.70;;;12.90;99.90;;;13.13;71.40;97620.56;4972544;28;20483;-73
2022/02/17 00:23:46;;;;;;;0.90;0.60;;;13.00;99.90;;;13.20;71.31;97629.97;4972600;28;20385;-71
2022/02/17 00:26:16;;;;;;;1.00;0.80;;;13.00;99.90;;;13.15;71.59;97640.91;4972721;28;20455;-69
2022/02/17 00:28:45;;;;;;;2.03;0.80;;;13.00;99.90;;;13.21;71.65;97623.44;4972637;28;20929;-71
2022/02/17 00:31:16;;;;;;;1.20;0.70;;;13.10;99.90;;;13.17;72.03;97603.41;4972465;28;20826;-71
2022/02/17 00:33:44;;;;;;;1.50;0.70;;;13.00;99.90;;;13.14;72.43;97628.44;4972437;28;20393;-69
2022/02/17 00:36:13;;;;;;;1.03;0.70;;;13.00;99.90;;;13.08;72.82;97607.88;4971231;28;20394;-69
2022/02/17 00:38:41;;;;;;;1.97;0.93;;;13.00;99.90;;;13.07;73.15;97609.78;4970863;28;20458;-71
2022/02/17 00:41:10;;;;;;;1.10;0.70;;;12.90;99.90;;;13.06;73.11;97599.22;4972925;28;20798;-71
2022/02/17 00:43:39;;;;;;;1.30;0.80;;;12.90;99.90;;;13.04;73.35;97599.53;4972847;28;20914;-70
2022/02/17 00:46:07;;;;;;;1.30;0.77;;;12.90;99.90;;;13.07;73.08;97598.91;4972341;28;20436;-71
2022/02/17 00:48:37;;;;;;;1.43;0.60;;;12.90;99.90;;;13.07;73.72;97596.19;4972405;28;20513;-70
2022/02/17 00:51:06;;;;;;;3.47;0.70;;;12.90;99.90;;;13.03;74.13;97562.63;4972934;28;20852;-71
2022/02/17 00:53:35;;;;;;;1.00;0.60;;;12.90;99.90;;;13.06;74.23;97543.03;4972401;28;20466;-73
2022/02/17 00:56:05;;;;;;;2.37;0.77;;;12.90;99.90;;;13.06;74.31;97544.94;4971121;28;20446;-73
2022/02/17 00:58:33;;;;;;;1.30;0.50;;;12.90;99.90;;;13.10;74.04;97566.88;4971512;28;20491;-68
2022/02/17 01:01:02;;;;;;;1.17;0.70;;;12.90;99.90;;;13.03;75.39;97562.63;4973183;28;20928;-70
2022/02/17 01:03:30;;;;;;;1.63;0.87;;;12.90;99.90;;;12.80;77.13;97786.03;4972982;28;20419;-71
2022/02/17 01:06:01;;;;;;;3.60;1.20;;;12.80;99.90;;;11.07;74.58;97805.03;4971739;28;20463;-72
2022/02/17 01:08:29;;;;;;;8.83;2.10;;;11.60;99.90;;;8.76;80.48;97853.63;4971465;28;20582;-70
2022/02/17 01:10:59;;;;;;;6.13;2.20;;;9.50;99.90;;;7.93;83.07;97827.56;4971983;28;20434;-73
2022/02/17 01:13:29;;;;;;;7.00;2.83;;;8.30;99.90;;;8.02;82.87;97840.25;4972273;28;20222;-72
2022/02/17 01:15:57;;;;;;;6.97;2.30;;;8.10;99.90;;;8.24;81.74;97853.56;4974193;28;20734;-72
2022/02/17 01:18:25;;;;;;;5.97;2.17;;;8.20;99.90;;;8.27;82.42;97855.78;4975242;28;20237;-69
2022/02/17 01:20:54;;;;;;;3.90;1.70;;;8.20;99.90;;;8.37;82.52;97887.38;4973060;28;20191;-70
2022/02/17 01:23:24;;;;;;;5.32;1.50;;;8.30;99.90;;;8.37;83.10;97893.56;4974820;28;20168;-69
2022/02/17 01:25:57;;;;;;;5.72;1.90;;;8.30;99.90;;;8.44;83.15;97931.06;4974110;28;20207;-73
2022/02/17 01:28:25;;;;;;;6.82;2.35;;;8.30;99.90;;;8.39;83.15;97860.97;4974673;28;20224;-71
2022/02/17 01:30:54;;;;;;;5.03;1.45;;;8.30;99.90;;;8.38;83.36;97856.66;4973972;28;20427;-72
2022/02/17 01:33:22;;;;;;;4.40;1.48;;;8.30;99.90;;;8.38;83.10;97845.88;4979876;28;20391;-72
2022/02/17 01:35:59;;;;;;;1.80;1.00;;;8.30;99.90;;;8.42;77.78;97847.81;4982087;28;20183;-71
2022/02/17 01:38:29;;;;;;;3.67;1.30;;;8.30;82.90;;;8.23;78.90;97820.44;4975691;28;20223;-70
2022/02/17 01:40:58;;;;;;;2.13;1.10;;;8.20;1.00;;;8.14;79.45;97789.69;4974912;28;20183;-69
2022/02/17 01:43:26;;;;;;;2.15;1.25;;;8.10;99.90;;;8.16;79.54;97751.75;4976106;28;20203;-72
2022/02/17 01:45:54;;;;;;;4.85;1.40;;;8.10;1.00;;;8.11;79.27;97755.22;4974486;28;20724;-69
2022/02/17 01:48:23;;;;;;;3.25;1.25;;;8.10;1.00;;;8.18;79.98;97800.78;4990921;28;20321;-72
2022/02/17 01:50:51;;;;;;;5.15;1.33;;;8.10;1.00;;;8.18;80.41;97812.34;4974044;28;20465;-70
2022/02/17 01:53:21;;;;;;;12.93;1.80;;;8.10;1.00;;;8.24;79.48;97803.22;4975243;28;20206;-71
2022/02/17 01:55:57;;;;;;;2.80;1.65;;;8.20;99.90;;;8.21;79.79;97849.53;4973801;28;20290;-70
2022/02/17 01:58:27;;;;;;;6.18;1.60;;;8.20;99.90;;;8.25;78.95;97823.69;4973987;28;20277;-70
2022/02/17 02:01:02;;;;;;;7.38;1.90;;;8.20;1.00;;;8.20;79.42;97837.13;4973879;28;20289;-71
2022/02/17 02:03:30;;;;;;;3.13;1.40;;;8.20;99.90;;;8.15;79.20;97826.34;4975491;28;20184;-71
2022/02/17 02:05:59;;;;;;;4.20;1.25;;;8.20;99.90;;;8.22;79.15;97826.94;4973311;28;20257;-71
2022/02/17 02:08:48;;;;;;;3.30;1.60;;;8.10;99.90;;;8.20;79.94;97850.59;4974826;28;20226;-70
2022/02/17 02:11:19;;;;;;;7.68;1.67;;;8.20;99.90;;;8.18;79.61;97863.50;4973785;28;20199;-70
2022/02/17 02:13:56;;;;;;;3.88;1.80;;;8.10;99.90;;;8.28;78.70;97858.19;4973831;28;20199;-71
2022/02/17 02:16:29;;;;;;;5.53;1.30;;;8.20;1.00;;;8.38;77.68;97856.66;4973860;28;20258;-70
2022/02/17 02:18:58;;;;;;;4.47;1.63;;;8.20;99.90;;;8.38;77.62;97846.69;4973696;28;20254;-71
2022/02/17 02:21:29;;;;;;;4.18;1.50;;;8.30;99.90;;;8.38;77.89;97865.53;4974060;28;20596;-70
2022/02/17 02:23:58;;;;;;;7.25;2.08;;;8.30;1.00;;;8.46;77.00;97858.88;4973799;28;20219;-72
2022/02/17 02:26:27;;;;;;;8.27;1.30;;;8.40;42.90;;;8.41;76.36;97839.97;4975330;28;20196;-71
2022/02/17 02:29:00;;;;;;;5.32;1.80;;;8.40;99.90;;;8.34;76.74;97844.78;4974061;28;20218;-71
2022/02/17 02:31:29;;;;;;;9.80;2.17;;;8.30;59.50;;;8.28;76.82;97844.72;4974197;28;20274;-70
2022/02/17 02:33:57;;;;;;;8.93;2.65;;;8.30;99.90;;;8.28;76.79;97814.28;4975578;28;20531;-69
2022/02/17 02:36:26;;;;;;;9.30;2.53;;;8.30;99.90;;;8.36;76.43;97808.44;4976043;28;20179;-71
2022/02/17 02:39:00;;;;;;;5.32;1.65;;;8.30;99.90;;;8.28;76.87;97801.63;4975485;28;20214;-71
2022/02/17 02:41:54;;;;;;;5.47;1.92;;;8.30;99.90;;;8.19;77.02;97789.72;4972143;28;20701;-71
2022/02/17 02:44:23;;;;;;;13.50;2.78;;;8.20;99.90;;;8.39;76.10;97796.31;4973154;28;20203;-69
2022/02/17 02:47:03;;;;;;;8.52;2.13;;;8.30;99.90;;;8.33;76.28;97783.91;4974621;28;20309;-69
2022/02/17 02:49:38;;;;;;;3.10;1.45;;;8.30;99.90;;;8.26;76.70;97757.19;4976017;28;20227;-69
2022/02/17 02:52:08;;;;;;;6.15;1.98;;;8.30;99.90;;;8.49;75.33;97762.13;4974090;28;20518;-69
2022/02/17 02:54:40;;;;;;;5.80;2.05;;;8.30;99.90;;;8.43;75.72;97783.94;4974180;28;20219;-73
2022/02/17 02:57:09;;;;;;;8.15;2.50;;;8.40;99.90;;;8.49;75.33;97816.03;4976111;28;20690;-71
2022/02/17 02:59:41;;;;;;;9.25;2.03;;;8.40;99.90;;;8.42;76.44;97815.47;4975177;28;20714;-69
2022/02/17 03:02:15;;;;;;;13.57;3.25;;;8.40;99.90;;;8.62;75.19;97828.19;4973946;28;20352;-69
2022/02/17 03:04:44;;;;;;;10.52;2.70;;;8.50;99.90;;;8.67;74.93;97829.03;4973889;28;20286;-71
2022/02/17 03:07:17;;;;;;;7.20;2.58;;;8.60;99.90;;;8.61;75.74;97788.88;4973870;28;20258;-67
2022/02/17 03:09:48;;;;;;;7.57;1.65;;;8.50;99.90;;;8.81;74.38;97791.59;4972991;28;20223;-69
2022/02/17 03:12:18;;;;;;;14.82;2.50;;;8.60;99.90;;;8.71;74.82;97775.44;4973536;28;20179;-71
2022/02/17 03:14:49;;;;;;;10.57;2.35;;;8.70;99.90;;;8.85;73.69;97779.22;4974929;28;20705;-73
2022/02/17 03:17:22;;;;;;;8.93;2.00;;;8.70;99.90;;;8.91;72.85;97753.88;4974056;28;20658;-69
2022/02/17 03:19:53;;;;;;;6.93;2.83;;;8.80;99.90;;;9.01;72.51;97769.25;4973893;28;20219;-70
2022/02/17 03:22:21;;;;;;;10.70;2.10;;;8.80;99.90;;;8.95;72.71;97792.75;4974015;28;20190;-72
2022/02/17 03:24:52;;;;;;;7.07;1.80;;;8.80;99.90;;;8.97;72.03;97789.75;4973770;28;20623;-72
2022/02/17 03:27:23;;;;;;;15.98;3.60;;;8.80;99.90;;;9.04;70.82;97790.31;4974988;28;20677;-72
2022/02/17 03:29:55;;;;;;;7.85;3.70;;;8.90;99.90;;;9.11;70.11;97780.88;4979036;28;20215;-69
2022/02/17 03:32:23;;;;;;;7.03;2.30;;;9.00;99.90;;;9.11;69.69;97769.28;4978288;28;20286;-71
2022/02/17 03:34:52;;;;;;;4.72;1.92;;;9.00;99.90;;;9.24;68.08;97784.16;4977832;28;20176;-70
2022/02/17 03:37:30;;;;;;;4.15;2.22;;;9.10;99.90;;;9.27;67.38;97753.91;4978282;28;20282;-70
2022/02/17 03:40:00;;;;;;;9.68;2.50;;;9.10;99.90;;;9.29;67.07;97744.50;4977174;28;20285;-71
2022/02/17 03:42:40;;;;;;;4.88;2.00;;;9.10;99.90;;;9.29;67.08;97738.28;4975465;28;20195;-75
2022/02/17 03:45:12;;;;;;;9.38;2.10;;;9.20;99.90;;;9.20;66.86;97713.72;4974400;28;20537;-69
2022/02/17 03:47:42;;;;;;;7.55;1.98;;;9.10;99.90;;;9.25;66.15;97737.19;4975629;28;20690;-69
2022/02/17 03:50:16;;;;;;;9.90;2.88;;;9.10;99.90;;;9.36;65.01;97728.00;4975581;28;20211;-70
2022/02/17 03:52:48;;;;;;;10.80;3.05;;;9.20;97.10;;;9.29;65.48;97727.50;4976571;28;20206;-69
2022/02/17 03:55:25;;;;;;;5.95;1.65;;;9.20;97.20;;;9.22;65.75;97760.13;4975592;28;20253;-69
2022/02/17 03:57:54;;;;;;;4.28;1.38;;;9.20;96.70;;;9.20;64.93;97737.22;4974875;28;20199;-70
2022/02/17 04:00:25;;;;;;;6.90;1.45;;;9.10;94.30;;;9.11;65.49;97726.94;4972669;28;20215;-73
2022/02/17 04:02:58;;;;;;;8.25;1.65;;;9.10;95.30;;;9.14;64.80;97736.41;4974524;28;20274;-69
2022/02/17 04:05:31;;;;;;;9.80;2.13;;;9.10;93.30;;;9.24;64.80;97771.47;4973199;28;20192;-68
2022/02/17 04:08:07;;;;;;;4.97;1.70;;;9.10;93.20;;;9.06;65.99;97777.38;4972500;28;20563;-71
2022/02/17 04:10:37;;;;;;;3.90;1.40;;;9.00;96.60;;;9.18;65.65;97774.41;4972100;28;20282;-71
2022/02/17 04:13:10;;;;;;;5.50;1.95;;;9.00;96.40;;;9.20;66.03;97775.75;4972228;28;20270;-69
2022/02/17 04:15:46;;;;;;;6.32;1.83;;;9.10;98.20;;;9.22;66.41;97786.28;4971846;28;20202;-68
2022/02/17 04:18:34;;;;;;;6.53;2.28;;;9.10;99.10;;;9.24;66.52;97809.25;4972266;28;20215;-70
2022/02/17 04:21:16;;;;;;;8.07;3.30;;;9.10;99.90;;;9.34;66.63;97811.13;4971983;28;20705;-72
2022/02/17 04:23:52;;;;;;;8.73;3.10;;;9.20;99.90;;;9.42;66.55;97818.69;4972625;28;20253;-69
2022/02/17 04:26:25;;;;;;;4.75;1.98;;;9.30;99.80;;;9.41;66.86;97831.38;4971742;28;20195;-71
2022/02/17 04:28:59;;;;;;;6.40;3.25;;;9.30;99.90;;;9.43;66.62;97868.88;4972083;28;20211;-69
2022/02/17 04:31:33;;;;;;;4.55;1.45;;;9.30;99.90;;;9.28;66.04;97901.22;4971870;28;20287;-69
2022/02/17 04:34:02;;;;;;;3.83;1.33;;;9.30;97.30;;;8.60;67.64;97941.69;4972662;28;20191;-72
2022/02/17 04:36:30;;;;;;;3.80;1.30;;;8.70;99.20;;;7.90;69.30;97935.72;4972361;28;20183;-70
2022/02/17 04:38:59;;;;;;;1.83;0.90;;;8.10;99.90;;;7.47;71.53;97955.50;4972061;28;20693;-69
2022/02/17 04:44:20;;;;;;;3.55;0.77;;;7.20;99.90;;;6.87;73.83;97953.75;4972829;28;20195;-69
2022/02/17 04:46:48;;;;;;;2.15;0.80;;;6.90;99.90;;;6.83;74.01;97925.72;4973718;28;20199;-70
2022/02/17 04:49:18;;;;;;;3.38;1.75;;;6.80;1.00;;;6.93;72.20;97925.84;4973946;28;20226;-69
2022/02/17 04:51:46;;;;;;;1.90;1.00;;;6.80;99.90;;;6.94;73.08;97922.94;4974038;28;20184;-72
2022/02/17 04:54:19;;;;;;;1.35;0.82;;;6.90;99.90;;;7.02;72.08;97923.56;4973440;28;20286;-70
2022/02/17 04:56:50;;;;;;;2.40;0.80;;;6.90;99.90;;;7.06;72.11;97935.44;4973075;28;20206;-69
2022/02/17 04:59:18;;;;;;;1.30;0.80;;;7.00;99.90;;;7.15;71.35;97937.44;4974434;28;20757;-70
2022/02/17 05:01:48;;;;;;;3.00;0.90;;;7.10;99.90;;;7.16;71.96;97935.56;4972460;28;20198;-71
2022/02/17 05:04:44;;;;;;;6.43;1.20;;;7.10;99.90;;;7.10;71.81;97953.50;4972865;28;20572;-68
2022/02/17 05:07:23;;;;;;;2.75;1.63;;;7.10;99.90;;;7.09;72.23;97946.50;4973341;28;20570;-69
2022/02/17 05:09:52;;;;;;;12.85;2.28;;;7.10;99.90;;;7.10;71.96;97950.00;4972535;28;20651;-69
2022/02/17 05:12:31;;;;;;;3.92;1.50;;;7.10;99.90;;;7.12;71.37;97951.34;4972414;28;20202;-69
2022/02/17 05:15:01;;;;;;;6.35;1.40;;;7.10;99.90;;;7.06;71.97;97941.63;4988870;28;20195;-72
2022/02/17 05:17:30;;;;;;;5.97;1.75;;;7.10;99.90;;;7.07;72.05;97942.44;4973381;28;20314;-69
2022/02/17 05:19:58;;;;;;;5.28;1.83;;;7.10;99.90;;;7.07;71.63;97945.13;4972550;28;20246;-69
2022/02/17 05:22:59;;;;;;;5.30;1.70;;;7.10;99.90;;;7.27;71.06;97975.75;4930236;28;20200;-71
2022/02/17 05:25:47;;;;;;;10.20;1.95;;;7.20;99.90;;;7.26;70.97;97967.94;4972376;28;20678;-70
2022/02/17 05:28:28;;;;;;;6.28;1.58;;;7.20;99.90;;;7.24;71.58;97981.63;4972134;28;20227;-68
2022/02/17 05:31:17;;;;;;;5.13;1.08;;;7.20;99.90;;;7.17;71.74;97962.16;4974360;28;20190;-72
2022/02/17 05:33:57;;;;;;;6.10;1.60;;;7.20;99.90;;;7.15;71.99;97964.31;4973009;28;20619;-69
2022/02/17 05:36:41;;;;;;;8.38;2.30;;;7.20;99.90;;;7.08;72.48;97957.50;4974892;28;20595;-71
2022/02/17 05:39:14;;;;;;;2.47;1.65;;;7.10;99.90;;;7.01;72.72;97960.38;4972859;28;20207;-68
2022/02/17 05:41:57;;;;;;;12.48;2.20;;;7.10;99.90;;;7.06;72.53;97963.13;4972651;28;20191;-70
2022/02/17 05:44:27;;;;;;;12.35;1.90;;;7.10;99.90;;;7.07;72.64;97964.75;4973386;28;20521;-71
2022/02/17 05:46:57;;;;;;;6.03;2.13;;;7.00;99.90;;;7.10;72.75;97958.88;4973602;28;20721;-68
2022/02/17 05:49:25;;;;;;;5.70;1.73;;;7.10;99.90;;;7.13;72.14;97958.38;4973610;28;20219;-71
2022/02/17 05:51:54;;;;;;;5.72;2.60;;;7.10;99.90;;;6.99;73.31;97954.44;4973747;28;20183;-71
2022/02/17 05:54:22;;;;;;;7.38;1.85;;;7.00;99.90;;;6.98;72.94;97947.44;4973307;28;20188;-73
2022/02/17 05:56:51;;;;;;;10.35;3.03;;;7.00;99.90;;;7.07;71.74;97940.53;4975802;28;20188;-72
2022/02/17 05:59:19;;;;;;;7.97;2.00;;;7.00;99.90;;;7.18;71.01;97944.97;4980479;28;20203;-74
2022/02/17 06:01:49;;;;;;;16.75;2.95;;;7.10;99.90;;;7.22;69.87;97942.59;4980199;28;20180;-69
2022/02/17 06:04:17;;;;;;;8.32;2.35;;;7.20;99.90;;;7.39;68.28;97944.16;4976098;28;20192;-68
2022/02/17 06:06:45;;;;;;;12.25;2.72;;;7.30;99.90;;;7.45;68.24;97936.94;4975267;28;20180;-69
2022/02/17 06:09:14;;;;;;;6.38;3.30;;;7.40;99.90;;;7.51;67.28;97949.38;4974085;28;20227;-70
2022/02/17 06:11:42;;;;;;;7.00;2.47;;;7.40;99.90;;;7.56;66.18;97940.53;4975326;28;20199;-68
2022/02/17 06:14:11;;;;;;;27.25;3.53;;;7.50;99.90;;;7.59;65.83;97972.34;4978851;28;20302;-70
2022/02/17 06:16:39;;;;;;;6.22;2.55;;;7.50;99.90;;;7.79;63.23;97961.78;4980359;28;20180;-72
2022/02/17 06:19:09;;;;;;;7.72;2.03;;;7.60;99.90;;;7.95;62.67;97970.78;4984079;28;20251;-75
2022/02/17 06:21:38;;;;;;;10.77;2.83;;;7.80;99.90;;;8.12;60.59;97983.06;4979780;28;20195;-71
2022/02/17 06:24:07;;;;;;;9.40;2.33;;;8.00;99.90;;;8.32;59.36;97987.03;4977146;28;20179;-68
2022/02/17 06:26:36;;;;;;;11.18;2.92;;;8.10;99.90;;;8.52;58.25;97977.19;4977398;28;20188;-72
2022/02/17 06:29:04;;;;;;;10.82;2.72;;;8.40;99.90;;;8.62;57.03;97988.03;4978048;28;20278;-71
2022/02/17 06:31:33;;;;;;;6.95;2.60;;;8.50;99.90;;;8.55;57.00;97975.88;4981499;28;20179;-70
2022/02/17 06:34:01;;;;;;;12.05;2.30;;;8.50;99.90;;;8.56;57.50;97989.09;4983166;28;20183;-71
2022/02/17 06:36:30;;;;;;;8.63;2.50;;;8.50;99.90;;;8.61;57.36;97991.00;4978623;28;20186;-73
2022/02/17 06:38:59;;;;;;;9.85;3.60;;;8.50;99.90;;;8.59;58.03;97995.84;4974848;28;20211;-72
2022/02/17 06:41:29;;;;;;;12.95;3.08;;;8.50;99.90;;;8.67;58.01;98014.19;4975045;28;20168;-70
2022/02/17 06:43:57;;;;;;;6.10;2.67;;;8.60;99.90;;;8.70;57.88;97989.44;4974915;28;20176;-70
2022/02/17 06:46:26;;;;;;;9.27;2.78;;;8.60;99.90;;;8.64;58.87;98006.66;4974706;28;20276;-71
2022/02/17 06:48:54;;;;;;;7.20;2.03;;;8.60;99.90;;;8.64;58.70;97998.56;4974583;28;20219;-70
2022/02/17 06:51:22;;;;;;;9.50;2.50;;;8.60;99.90;;;8.69;58.50;97998.59;4974771;28;20226;-68
2022/02/17 06:53:53;;;;;;;13.52;2.75;;;8.60;99.90;;;8.65;58.53;98002.88;4973411;28;20199;-69
2022/02/17 06:56:22;;;;;;;17.20;4.03;;;8.60;99.90;;;8.64;58.52;98014.72;4974990;28;20274;-71
2022/02/17 06:58:52;;;;;;;10.30;2.38;;;8.60;99.90;;;8.65;57.92;98002.88;4974637;28;20270;-70
2022/02/17 07:01:23;;;;;;;27.67;3.53;;;8.50;99.90;;;8.76;56.78;97999.19;4975151;28;20477;-70
2022/02/17 07:03:53;;;;;;;10.27;2.08;;;8.60;99.90;;;8.70;57.00;98000.22;4974679;28;20676;-73
2022/02/17 07:06:23;;;;;;;9.25;2.75;;;8.60;99.90;;;8.71;56.60;98004.56;4975197;28;20180;-73
2022/02/17 07:08:53;;;;;;;10.02;2.83;;;8.60;99.90;;;8.77;56.15;98010.75;4975035;28;20226;-72
2022/02/17 07:11:21;;;;;;;8.68;2.90;;;8.70;99.90;;;8.87;55.30;98011.63;4974251;28;20195;-72
2022/02/17 07:13:51;;;;;;;10.52;2.45;;;8.80;99.90;;;8.96;55.38;98014.66;4975724;28;20203;-71
2022/02/17 07:16:19;;;;;;;7.90;2.58;;;8.90;99.90;;;9.01;54.50;98038.94;4975432;28;20179;-72
2022/02/17 07:18:48;;;;;;;11.98;2.50;;;8.90;99.90;;;9.05;53.89;98013.09;4975330;28;20697;-71
2022/02/17 07:21:20;;;;;;;9.50;3.08;;;8.90;1.00;;;9.01;54.60;98003.88;4975345;28;20172;-73
2022/02/17 07:23:48;;;;;;;11.80;3.75;;;8.90;1.00;;;9.00;54.10;98027.38;4975273;28;20666;-73
2022/02/17 07:26:19;;;;;;;13.30;3.95;;;8.90;1.00;;;9.06;53.89;98002.03;4975031;28;20198;-71
2022/02/17 07:28:49;;;;;;;12.00;2.72;;;8.90;1.00;;;9.15;53.87;98011.25;4975125;28;20215;-71
2022/02/17 07:31:17;;;;;;;8.30;3.45;;;9.00;1.00;;;9.23;53.43;98019.94;4974386;28;20176;-70
2022/02/17 07:33:46;;;;;;;9.00;2.28;;;9.10;1.00;;;9.24;53.75;98008.88;5005068;23;20222;-72
2022/02/17 07:36:16;;;;;;;11.02;2.78;;;9.20;1.00;;;9.34;53.45;98032.41;4981990;28;20168;-75
2022/02/17 07:38:49;;;;;;;6.30;2.47;;;9.20;1.00;;;9.39;52.98;98024.31;4964848;28;20731;-73
2022/02/17 07:41:19;;;;;;;7.63;2.90;;;9.30;1.00;;;9.44;53.39;98010.84;4958299;29;20625;-72
2022/02/17 07:43:48;;;;;;;8.88;2.42;;;9.30;99.90;;;9.56;52.44;98025.72;4958732;29;20596;-73
2022/02/17 07:46:18;;;;;;;9.77;3.90;;;9.40;99.90;;;9.67;51.89;98015.78;4958456;28;20173;-74
2022/02/17 07:48:49;;;;;;;13.50;2.75;;;9.50;99.90;;;9.82;51.71;98028.50;5311893;23;20226;-71
2022/02/17 07:51:17;;;;;;;6.43;2.17;;;9.60;99.90;;;9.83;50.72;98006.63;4995629;28;20179;-71
2022/02/17 07:53:46;;;;;;;11.10;2.97;;;9.70;1.00;;;9.85;50.22;98017.16;4996411;28;20234;-72
2022/02/17 07:56:16;;;;;;;17.05;3.08;;;9.70;99.90;;;9.80;50.54;98026.06;4996541;28;20238;-71
2022/02/17 07:58:47;;;;;;;10.40;3.70;;;9.70;99.90;;;9.75;50.32;98031.44;4985207;28;20645;-72
2022/02/17 08:01:18;;;;;;;14.70;3.50;;;9.70;99.90;;;9.73;50.16;98030.91;4978390;28;20242;-72
2022/02/17 08:03:52;;;;;;;8.63;3.70;;;9.60;99.90;;;9.71;50.44;98043.88;4978786;28;20175;-72
2022/02/17 08:06:20;;;;;;;9.02;2.20;;;9.60;99.90;;;9.65;50.34;98044.91;4977671;28;20184;-73
2022/02/17 08:08:57;;;;;;;15.27;3.55;;;9.60;1.00;;;9.67;50.24;98053.56;4977895;28;20222;-72
2022/02/17 08:11:26;;;;;;;5.53;2.33;;;9.60;1.00;;;9.68;49.87;98082.22;4989703;28;20204;-71
2022/02/17 08:13:57;;;;;;;9.35;2.70;;;9.60;1.00;;;9.68;50.52;98071.41;4996395;28;20437;-72
2022/02/17 08:16:27;;;;;;;10.27;2.88;;;9.60;1.00;;;9.66;50.19;98034.94;4995812;28;20188;-71
2022/02/17 08:18:56;;;;;;;12.40;2.55;;;9.50;1.00;;;9.70;50.50;98057.63;4993186;28;20211;-72
2022/02/17 08:21:43;;;;;;;11.23;3.50;;;9.60;1.00;;;9.76;50.04;98078.97;4969433;29;20247;-70
2022/02/17 08:24:12;;;;;;;7.10;2.75;;;9.70;99.20;;;9.74;50.53;98085.72;4972735;28;20211;-69
2022/02/17 08:26:43;;;;;;;11.18;2.88;;;9.60;99.90;;;9.79;50.72;98080.31;4975787;29;20192;-70
2022/02/17 08:29:12;;;;;;;7.97;2.10;;;9.70;99.90;;;9.77;50.52;98063.59;4987452;28;20215;-71
2022/02/17 08:31:42;;;;;;;7.43;2.95;;;9.70;99.90;;;9.72;50.74;98110.28;4993822;28;20176;-69
2022/02/17 08:34:10;;;;;;;9.30;3.13;;;9.70;99.90;;;9.72;51.12;98075.19;4994523;28;20203;-70
2022/02/17 08:36:39;;;;;;;7.72;2.30;;;9.60;99.90;;;9.78;51.16;98090.31;4988920;28;20210;-71
2022/02/17 08:39:12;;;;;;;11.93;3.53;;;9.70;1.00;;;9.83;50.73;98100.31;5013118;23;20206;-71
2022/02/17 08:41:40;;;;;;;9.95;2.92;;;9.70;1.00;;;9.86;50.38;98083.59;4994507;28;20248;-73
2022/02/17 08:44:08;;;;;;;9.40;2.58;;;9.70;99.90;;;9.84;50.53;98110.88;4997096;28;20211;-74
2022/02/17 08:46:38;;;;;;;6.95;2.22;;;9.70;52.80;;;9.92;50.50;98120.38;4996588;28;20176;-75
2022/02/17 08:49:07;;;;;;;8.63;3.58;;;9.80;1.00;;;9.94;50.65;98092.00;4995506;28;20246;-75
2022/02/17 08:51:37;;;;;;;19.48;3.72;;;9.80;99.90;;;9.90;50.57;98123.31;4995902;28;20190;-74
2022/02/17 08:54:08;;;;;;;7.03;3.45;;;9.80;1.00;;;9.88;50.57;98130.06;4994377;28;20241;-74
2022/02/17 08:56:36;;;;;;;8.95;2.83;;;9.80;1.00;;;9.91;50.59;98113.34;4997395;28;20176;-74
2022/02/17 08:59:07;;;;;;;6.43;2.35;;;9.80;1.00;;;9.86;51.16;98126.81;4989827;28;20251;-75
2022/02/17 09:01:38;;;;;;;6.45;3.00;;;9.80;34.60;;;9.87;51.15;98164.38;4978095;28;20270;-74
2022/02/17 09:04:39;;;;;;;12.27;3.30;;;9.80;99.90;;;9.84;50.98;98151.38;4975648;28;20178;-73
2022/02/17 09:07:08;;;;;;;7.70;2.85;;;9.70;99.90;;;9.86;51.08;98168.16;4974242;28;20717;-73
2022/02/17 09:09:39;;;;;;;10.00;2.70;;;9.80;1.00;;;9.91;50.99;98194.38;4974049;28;20211;-74
2022/02/17 09:12:09;;;;;;;5.45;2.28;;;9.80;88.50;;;9.86;51.56;98165.44;4973795;28;20683;-72
2022/02/17 09:14:39;;;;;;;14.63;2.88;;;9.70;99.90;;;9.90;51.40;98182.75;4974785;28;20211;-74
2022/02/17 09:17:15;;;;;;;11.05;2.38;;;9.80;99.90;;;9.94;51.23;98180.31;4974199;28;20188;-72
2022/02/17 09:19:57;;;;;;;7.40;2.22;;;9.80;99.90;;;9.89;51.48;98218.09;4974133;28;20621;-74
2022/02/17 09:22:26;;;;;;;13.95;2.33;;;9.80;99.90;;;9.83;51.87;98170.53;4974064;28;20210;-73
2022/02/17 09:24:54;;;;;;;7.00;2.25;;;9.70;1.00;;;9.85;52.35;98217.81;4975006;28;20179;-74
2022/02/17 09:27:23;;;;;;;14.85;3.33;;;9.70;1.00;;;9.85;52.25;98214.31;4974268;28;20187;-73
2022/02/17 09:29:51;;;;;;;10.38;3.60;;;9.70;1.00;;;9.84;52.47;98240.50;4973476;28;20218;-72
2022/02/17 09:32:25;;;;;;;7.82;3.38;;;9.70;99.90;;;9.83;52.55;98257.78;4972375;28;20198;-73
2022/02/17 09:34:54;;;;;;;12.35;4.20;;;9.70;99.90;;;9.78;52.87;98252.34;4972936;28;20198;-72
2022/02/17 09:37:23;;;;;;;7.25;2.20;;;9.70;99.90;;;9.84;53.25;98253.19;4972683;28;20278;-73
2022/02/17 09:39:52;;;;;;;7.63;2.75;;;9.70;99.90;;;9.86;53.01;98275.34;4973105;28;20632;-73
2022/02/17 09:42:21;;;;;;;9.93;2.67;;;9.70;99.90;;;9.70;52.97;98287.94;4972939;28;20188;-71
2022/02/17 09:44:49;;;;;;;6.85;2.58;;;9.70;99.90;;;9.68;53.65;98300.91;4971780;28;20195;-70
2022/02/17 09:47:24;;;;;;;6.30;2.47;;;9.60;41.50;;;9.68;53.85;98286.59;4973688;28;20176;-73
2022/02/17 09:49:54;;;;;;;10.02;3.72;;;9.60;1.00;;;9.59;54.09;98307.84;4972476;28;20226;-74
2022/02/17 09:56:41;;;;;;;5.78;1.55;;;9.40;99.90;;;9.03;58.74;98369.38;4978825;28;20203;-72
2022/02/17 10:03:32;;;;;;;6.25;2.05;;;8.90;66.20;;;8.87;59.96;98375.66;4960954;28;20211;-74
2022/02/17 10:06:22;;;;;;;10.65;2.55;;;8.80;75.20;;;8.98;59.58;98368.50;4977064;28;20545;-75
2022/02/17 10:08:51;;;;;;;8.63;2.17;;;8.90;79.90;;;8.98;59.19;98368.50;4977432;28;20800;-72
2022/02/17 10:11:30;;;;;;;6.95;2.50;;;8.90;76.90;;;8.96;59.39;98414.59;4976562;28;20231;-72
2022/02/17 10:14:04;;;;;;;5.80;2.30;;;8.90;77.40;;;8.91;58.92;98411.84;4977648;28;20183;-72
2022/02/17 10:16:55;;;;;;;5.15;1.60;;;8.80;73.70;;;8.93;59.54;98415.13;4978651;28;20183;-72
2022/02/17 10:20:16;;;;;;;6.82;2.63;;;8.80;77.30;;;9.02;58.88;98427.09;4977905;28;20219;-71
2022/02/17 10:23:31;;;;;;;10.45;3.03;;;8.90;77.00;;;8.99;58.84;98430.31;4975276;28;20203;-73
2022/02/17 10:26:33;;;;;;;4.20;1.85;;;8.90;75.80;;;9.07;58.74;98443.34;4975631;28;20195;-71
2022/02/17 10:29:03;;;;;;;8.95;2.40;;;8.90;77.90;;;9.01;58.76;98443.53;4975513;28;20225;-71
2022/02/17 10:31:35;;;;;;;4.05;1.70;;;8.90;75.10;;;9.02;57.92;98440.59;4974143;28;20254;-71
2022/02/17 10:34:06;;;;;;;6.28;2.28;;;8.90;72.50;;;9.14;58.26;98480.94;4974128;28;20203;-70
2022/02/17 10:36:37;;;;;;;10.43;3.05;;;9.00;75.30;;;9.12;58.32;98499.25;4974769;28;20176;-71
2022/02/17 10:39:13;;;;;;;9.38;1.70;;;9.00;74.30;;;9.13;58.30;98473.91;4975309;28;20937;-70
2022/02/17 10:41:49;;;;;;;6.28;1.77;;;9.00;73.80;;;9.13;58.87;98485.50;4974768;28;20320;-71
2022/02/17 10:44:19;;;;;;;7.00;2.28;;;9.00;74.80;;;9.24;58.36;98491.84;4975393;28;20266;-73
2022/02/17 10:46:51;;;;;;;6.20;1.73;;;9.10;76.60;;;9.21;58.58;98480.72;4976242;28;20191;-73
2022/02/17 11:01:37;;;;;;;8.13;1.75;;;8.90;82.80;;;8.87;60.39;98550.13;4976208;28;20661;-75
2022/02/17 11:05:00;;;;;;;9.35;3.55;;;8.80;85.10;;;8.91;59.83;98532.38;4956880;28;20572;-73
2022/02/17 11:07:37;;;;;;;4.45;1.70;;;8.80;84.40;;;8.95;59.65;98555.94;4974871;28;20199;-74
2022/02/17 11:10:09;;;;;;;3.78;2.15;;;8.90;83.50;;;9.08;58.70;98573.66;4975602;28;20250;-73
2022/02/17 11:12:41;;;;;;;5.13;1.60;;;9.00;81.00;;;9.05;58.64;98556.06;4975249;28;20199;-72
2022/02/17 11:15:10;;;;;;;7.15;1.98;;;9.00;78.60;;;9.03;58.58;98581.66;4974875;28;20203;-72